createdAt,value
2017-12-01T00:00:27.398Z,99426.81
2017-12-01T00:01:32.769Z,99414.75
2017-12-01T00:02:38.268Z,99426.80
2017-12-01T00:03:43.982Z,99428.52
2017-12-01T00:04:50.456Z,99425.95
2017-12-01T00:05:56.971Z,99426.40
2017-12-01T00:07:02.670Z,99430.73
2017-12-01T00:08:08.390Z,99423.84
2017-12-01T00:09:14.964Z,99423.42
2017-12-01T00:10:20.669Z,99426.42
2017-12-01T00:11:26.061Z,99421.28
2017-12-01T00:12:31.764Z,99425.20
2017-12-01T00:13:37.468Z,99422.20
2017-12-01T00:14:43.168Z,99422.18
2017-12-01T00:15:48.880Z,99422.20
2017-12-01T00:16:55.389Z,99420.52
2017-12-01T00:18:01.114Z,99425.27
2017-12-01T00:19:06.831Z,99424.41
2017-12-01T00:20:13.297Z,99422.69
2017-12-01T00:21:19.016Z,99426.98
2017-12-01T00:22:25.790Z,99420.54
2017-12-01T00:23:31.498Z,99427.05
2017-12-01T00:24:37.191Z,99425.77
2017-12-01T00:25:42.896Z,99424.06
2017-12-01T00:26:49.365Z,99426.64
2017-12-01T00:27:55.853Z,99424.48
2017-12-01T00:29:01.545Z,99428.81
2017-12-01T00:30:08.023Z,99423.30
2017-12-01T00:31:14.499Z,99425.41
2017-12-01T00:32:20.191Z,99429.67
2017-12-01T00:33:25.930Z,99429.26
2017-12-01T00:34:31.669Z,99431.41
2017-12-01T00:35:37.366Z,99429.25
2017-12-01T00:36:43.081Z,99430.06
2017-12-01T00:37:49.545Z,99431.36
2017-12-01T00:38:56.035Z,99433.95
2017-12-01T00:40:01.784Z,99431.81
2017-12-01T00:41:07.713Z,99435.25
2017-12-01T00:42:13.408Z,99435.25
2017-12-01T00:43:19.103Z,99436.57
2017-12-01T00:44:24.836Z,99440.85
2017-12-01T00:45:30.781Z,99447.75
2017-12-01T00:46:36.477Z,99449.53
2017-12-01T00:47:42.974Z,99451.70
2017-12-01T00:48:48.662Z,99453.88
2017-12-01T00:49:54.405Z,99456.88
2017-12-01T00:51:00.109Z,99453.11
2017-12-01T00:52:05.812Z,99456.55
2017-12-01T00:53:11.285Z,99456.98
2017-12-01T00:54:16.985Z,99462.13
2017-12-01T00:55:23.487Z,99460.09
2017-12-01T00:56:29.190Z,99461.41
2017-12-01T00:57:35.650Z,99463.59
2017-12-01T00:58:41.170Z,99460.64
2017-12-01T00:59:47.646Z,99458.08
2017-12-01T01:00:53.395Z,99469.28
2017-12-01T01:01:59.113Z,99465.50
2017-12-01T01:03:04.803Z,99472.39
2017-12-01T01:04:10.541Z,99469.84
2017-12-01T01:05:15.932Z,99471.14
2017-12-01T01:06:22.429Z,99475.48
2017-12-01T01:07:28.142Z,99469.52
2017-12-01T01:08:33.687Z,99481.22
2017-12-01T01:09:40.156Z,99475.61
2017-12-01T01:10:46.631Z,99477.36
2017-12-01T01:11:52.366Z,99476.09
2017-12-01T01:12:58.285Z,99474.87
2017-12-01T01:14:04.765Z,99478.78
2017-12-01T01:15:10.486Z,99480.47
2017-12-01T01:16:16.943Z,99483.05
2017-12-01T01:17:23.440Z,99483.13
2017-12-01T01:18:28.823Z,99479.66
2017-12-01T01:19:34.523Z,99481.80
2017-12-01T01:20:39.564Z,99478.84
2017-12-01T01:21:44.613Z,99483.09
2017-12-01T01:22:50.344Z,99476.69
2017-12-01T01:23:55.382Z,99481.41
2017-12-01T01:25:01.850Z,99482.72
2017-12-01T01:26:08.327Z,99481.38
2017-12-01T01:27:14.017Z,99486.57
2017-12-01T01:28:19.750Z,99487.86
2017-12-01T01:29:25.454Z,99486.58
2017-12-01T01:30:31.158Z,99487.02
2017-12-01T01:31:36.858Z,99486.59
2017-12-01T01:32:42.610Z,99486.58
2017-12-01T01:33:48.139Z,99484.86
2017-12-01T01:34:53.642Z,99485.72
2017-12-01T01:35:59.354Z,99484.88
2017-12-01T01:37:05.072Z,99487.86
2017-12-01T01:38:10.789Z,99485.23
2017-12-01T01:39:16.512Z,99486.53
2017-12-01T01:40:22.221Z,99492.95
2017-12-01T01:41:28.017Z,99491.64
2017-12-01T01:42:33.059Z,99488.63
2017-12-01T01:43:38.102Z,99499.77
2017-12-01T01:44:43.932Z,99496.72
2017-12-01T01:45:49.628Z,99497.13
2017-12-01T01:46:54.996Z,99498.84
2017-12-01T01:48:00.170Z,99496.25
2017-12-01T01:49:05.217Z,99496.23
2017-12-01T01:50:10.615Z,99499.24
2017-12-01T01:51:17.068Z,99495.38
2017-12-01T01:52:22.874Z,99498.86
2017-12-01T01:53:27.718Z,99497.16
2017-12-01T01:54:33.520Z,99495.86
2017-12-01T01:55:38.925Z,99498.09
2017-12-01T01:56:44.301Z,99489.97
2017-12-01T01:57:49.377Z,99495.61
2017-12-01T01:58:54.428Z,99495.19
2017-12-01T01:59:59.510Z,99495.66
2017-12-01T02:01:05.344Z,99497.37
2017-12-01T02:02:11.049Z,99492.70
2017-12-01T02:03:16.425Z,99498.72
2017-12-01T02:04:22.907Z,99502.60
2017-12-01T02:05:28.605Z,99497.47
2017-12-01T02:06:33.683Z,99498.77
2017-12-01T02:07:38.724Z,99499.68
2017-12-01T02:08:44.425Z,99500.55
2017-12-01T02:09:50.601Z,99502.69
2017-12-01T02:10:55.664Z,99505.20
2017-12-01T02:12:00.533Z,99505.66
2017-12-01T02:13:05.920Z,99503.91
2017-12-01T02:14:11.638Z,99503.91
2017-12-01T02:15:17.021Z,99507.76
2017-12-01T02:16:23.513Z,99514.61
2017-12-01T02:17:28.578Z,99508.98
2017-12-01T02:18:33.643Z,99506.83
2017-12-01T02:19:39.461Z,99511.12
2017-12-01T02:20:44.518Z,99514.53
2017-12-01T02:21:49.606Z,99504.65
2017-12-01T02:22:54.705Z,99511.08
2017-12-01T02:23:59.752Z,99510.19
2017-12-01T02:25:04.568Z,99516.56
2017-12-01T02:26:09.446Z,99513.16
2017-12-01T02:27:14.526Z,99512.77
2017-12-01T02:28:22.484Z,99516.65
2017-12-01T02:29:27.561Z,99516.67
2017-12-01T02:30:33.438Z,99520.13
2017-12-01T02:31:38.532Z,99519.33
2017-12-01T02:32:44.713Z,99522.36
2017-12-01T02:33:49.561Z,99525.81
2017-12-01T02:34:54.614Z,99527.95
2017-12-01T02:36:00.444Z,99532.67
2017-12-01T02:37:05.281Z,99530.96
2017-12-01T02:38:11.116Z,99530.45
2017-12-01T02:39:16.205Z,99534.73
2017-12-01T02:40:21.268Z,99531.80
2017-12-01T02:41:26.302Z,99541.30
2017-12-01T02:42:32.114Z,99543.00
2017-12-01T02:43:37.170Z,99537.05
2017-12-01T02:44:43.010Z,99536.23
2017-12-01T02:45:48.826Z,99538.91
2017-12-01T02:46:53.872Z,99538.16
2017-12-01T02:47:59.697Z,99535.60
2017-12-01T02:49:04.749Z,99541.66
2017-12-01T02:50:10.593Z,99542.53
2017-12-01T02:51:16.436Z,99538.22
2017-12-01T02:52:22.280Z,99540.73
2017-12-01T02:53:27.341Z,99546.28
2017-12-01T02:54:32.404Z,99543.66
2017-12-01T02:55:37.486Z,99544.48
2017-12-01T02:56:42.525Z,99549.97
2017-12-01T02:57:47.568Z,99547.81
2017-12-01T02:58:52.625Z,99553.84
2017-12-01T02:59:58.432Z,99553.47
2017-12-01T03:01:03.521Z,99557.78
2017-12-01T03:02:08.903Z,99555.64
2017-12-01T03:03:13.954Z,99555.66
2017-12-01T03:04:18.799Z,99553.95
2017-12-01T03:05:23.643Z,99561.68
2017-12-01T03:06:28.785Z,99558.69
2017-12-01T03:07:33.864Z,99561.68
2017-12-01T03:08:38.931Z,99562.55
2017-12-01T03:09:43.983Z,99563.41
2017-12-01T03:10:49.017Z,99562.17
2017-12-01T03:11:54.862Z,99561.75
2017-12-01T03:13:00.674Z,99572.05
2017-12-01T03:14:05.728Z,99565.63
2017-12-01T03:15:10.773Z,99567.37
2017-12-01T03:16:15.850Z,99569.17
2017-12-01T03:17:20.929Z,99574.34
2017-12-01T03:18:25.981Z,99581.72
2017-12-01T03:19:31.040Z,99575.72
2017-12-01T03:20:36.089Z,99573.21
2017-12-01T03:21:41.897Z,99578.83
2017-12-01T03:22:46.972Z,99576.33
2017-12-01T03:23:52.037Z,99582.34
2017-12-01T03:24:57.093Z,99580.62
2017-12-01T03:26:02.157Z,99583.61
2017-12-01T03:27:07.205Z,99585.28
2017-12-01T03:28:12.314Z,99584.42
2017-12-01T03:29:17.351Z,99584.85
2017-12-01T03:30:22.389Z,99587.84
2017-12-01T03:31:27.441Z,99586.98
2017-12-01T03:32:32.498Z,99581.84
2017-12-01T03:33:37.570Z,99587.42
2017-12-01T03:34:42.621Z,99580.56
2017-12-01T03:35:47.736Z,99586.55
2017-12-01T03:36:52.840Z,99590.84
2017-12-01T03:37:57.910Z,99592.97
2017-12-01T03:39:03.353Z,99597.19
2017-12-01T03:40:08.968Z,99594.61
2017-12-01T03:41:14.040Z,99595.05
2017-12-01T03:42:19.116Z,99594.17
2017-12-01T03:43:24.178Z,99591.59
2017-12-01T03:44:29.244Z,99591.17
2017-12-01T03:45:34.285Z,99597.19
2017-12-01T03:46:39.329Z,99595.47
2017-12-01T03:47:44.370Z,99601.89
2017-12-01T03:48:49.954Z,99598.02
2017-12-01T03:49:54.797Z,99598.00
2017-12-01T03:50:59.844Z,99600.53
2017-12-01T03:52:05.656Z,99603.95
2017-12-01T03:53:10.717Z,99602.67
2017-12-01T03:54:16.531Z,99600.95
2017-12-01T03:55:21.614Z,99607.81
2017-12-01T03:56:26.669Z,99605.23
2017-12-01T03:57:31.733Z,99606.52
2017-12-01T03:58:37.549Z,99606.52
2017-12-01T03:59:42.617Z,99607.79
2017-12-01T04:00:47.720Z,99606.44
2017-12-01T04:01:53.525Z,99610.73
2017-12-01T04:02:58.612Z,99610.30
2017-12-01T04:04:04.397Z,99607.72
2017-12-01T04:05:09.486Z,99605.15
2017-12-01T04:06:14.595Z,99611.98
2017-12-01T04:07:20.417Z,99608.12
2017-12-01T04:08:25.484Z,99607.69
2017-12-01T04:09:30.585Z,99608.55
2017-12-01T04:10:36.405Z,99611.99
2017-12-01T04:11:41.508Z,99614.56
2017-12-01T04:12:46.586Z,99611.93
2017-12-01T04:13:51.653Z,99610.69
2017-12-01T04:14:56.746Z,99608.97
2017-12-01T04:16:01.865Z,99614.98
2017-12-01T04:17:07.728Z,99615.00
2017-12-01T04:18:12.775Z,99615.84
2017-12-01T04:19:17.828Z,99618.85
2017-12-01T04:20:22.876Z,99618.81
2017-12-01T04:21:27.924Z,99617.50
2017-12-01T04:22:32.756Z,99616.62
2017-12-01T04:23:37.797Z,99618.32
2017-12-01T04:24:42.850Z,99618.28
2017-12-01T04:25:48.699Z,99624.71
2017-12-01T04:26:53.740Z,99619.12
2017-12-01T04:27:59.585Z,99619.56
2017-12-01T04:29:05.396Z,99621.33
2017-12-01T04:30:11.114Z,99622.63
2017-12-01T04:31:16.173Z,99626.51
2017-12-01T04:32:21.222Z,99631.69
2017-12-01T04:33:26.308Z,99636.91
2017-12-01T04:34:31.363Z,99638.20
2017-12-01T04:35:37.183Z,99640.36
2017-12-01T04:36:42.305Z,99638.73
2017-12-01T04:37:47.344Z,99650.33
2017-12-01T04:38:53.189Z,99643.95
2017-12-01T04:39:59.010Z,99654.73
2017-12-01T04:41:04.073Z,99662.61
2017-12-01T04:42:09.130Z,99661.00
2017-12-01T04:43:14.178Z,99663.63
2017-12-01T04:44:19.262Z,99664.92
2017-12-01T04:45:24.348Z,99664.02
2017-12-01T04:46:29.392Z,99670.97
2017-12-01T04:47:35.216Z,99674.48
2017-12-01T04:48:40.266Z,99673.77
2017-12-01T04:49:46.118Z,99673.85
2017-12-01T04:50:51.177Z,99670.02
2017-12-01T04:51:56.034Z,99666.17
2017-12-01T04:53:01.117Z,99668.74
2017-12-01T04:54:05.994Z,99666.59
2017-12-01T04:55:11.841Z,99668.75
2017-12-01T04:56:17.668Z,99676.08
2017-12-01T04:57:23.495Z,99677.37
2017-12-01T04:58:28.556Z,99677.81
2017-12-01T04:59:34.696Z,99682.97
2017-12-01T05:00:40.361Z,99684.28
2017-12-01T05:01:45.471Z,99683.89
2017-12-01T05:02:50.864Z,99689.86
2017-12-01T05:03:55.924Z,99687.34
2017-12-01T05:05:01.730Z,99689.94
2017-12-01T05:06:06.821Z,99692.94
2017-12-01T05:07:11.877Z,99695.98
2017-12-01T05:08:16.953Z,99693.41
2017-12-01T05:09:22.005Z,99696.84
2017-12-01T05:10:27.066Z,99696.41
2017-12-01T05:11:32.149Z,99696.86
2017-12-01T05:12:37.195Z,99700.28
2017-12-01T05:13:42.249Z,99702.02
2017-12-01T05:14:47.352Z,99700.31
2017-12-01T05:15:52.419Z,99699.88
2017-12-01T05:16:58.266Z,99704.22
2017-12-01T05:18:04.085Z,99710.22
2017-12-01T05:19:10.255Z,99710.23
2017-12-01T05:20:16.068Z,99711.97
2017-12-01T05:21:21.154Z,99711.17
2017-12-01T05:22:26.296Z,99712.45
2017-12-01T05:23:31.365Z,99713.73
2017-12-01T05:24:36.436Z,99718.04
2017-12-01T05:25:41.511Z,99722.39
2017-12-01T05:26:46.556Z,99720.27
2017-12-01T05:27:52.410Z,99722.84
2017-12-01T05:28:57.482Z,99724.59
2017-12-01T05:30:02.642Z,99726.73
2017-12-01T05:31:08.502Z,99727.98
2017-12-01T05:32:13.896Z,99728.89
2017-12-01T05:33:19.074Z,99737.89
2017-12-01T05:34:24.143Z,99731.47
2017-12-01T05:35:29.199Z,99741.31
2017-12-01T05:36:35.018Z,99737.05
2017-12-01T05:37:40.073Z,99741.31
2017-12-01T05:38:45.936Z,99743.90
2017-12-01T05:39:51.027Z,99738.75
2017-12-01T05:40:56.087Z,99745.18
2017-12-01T05:42:02.237Z,99744.34
2017-12-01T05:43:07.355Z,99745.61
2017-12-01T05:44:12.442Z,99751.56
2017-12-01T05:45:17.501Z,99753.70
2017-12-01T05:46:22.571Z,99751.13
2017-12-01T05:47:27.635Z,99748.97
2017-12-01T05:48:33.471Z,99752.41
2017-12-01T05:49:38.569Z,99759.64
2017-12-01T05:50:43.613Z,99758.34
2017-12-01T05:51:48.673Z,99763.41
2017-12-01T05:52:54.060Z,99766.78
2017-12-01T05:53:59.125Z,99766.72
2017-12-01T05:55:04.970Z,99764.55
2017-12-01T05:56:10.037Z,99772.20
2017-12-01T05:57:15.090Z,99769.12
2017-12-01T05:58:20.163Z,99766.91
2017-12-01T05:59:25.309Z,99768.59
2017-12-01T06:00:30.419Z,99771.91
2017-12-01T06:01:35.590Z,99774.41
2017-12-01T06:02:40.734Z,99781.25
2017-12-01T06:03:46.594Z,99784.61
2017-12-01T06:04:52.387Z,99783.66
2017-12-01T06:05:57.484Z,99782.28
2017-12-01T06:07:02.302Z,99790.78
2017-12-01T06:08:07.349Z,99782.11
2017-12-01T06:09:12.409Z,99785.47
2017-12-01T06:10:17.452Z,99790.52
2017-12-01T06:11:23.304Z,99791.25
2017-12-01T06:12:29.113Z,99792.89
2017-12-01T06:13:34.167Z,99790.64
2017-12-01T06:14:39.800Z,99797.43
2017-12-01T06:15:45.627Z,99792.17
2017-12-01T06:16:50.693Z,99790.80
2017-12-01T06:17:55.757Z,99797.57
2017-12-01T06:19:00.789Z,99796.63
2017-12-01T06:20:05.918Z,99802.95
2017-12-01T06:21:10.950Z,99806.29
2017-12-01T06:22:16.014Z,99798.02
2017-12-01T06:23:21.049Z,99802.25
2017-12-01T06:24:26.101Z,99798.78
2017-12-01T06:25:31.133Z,99801.30
2017-12-01T06:26:36.183Z,99801.30
2017-12-01T06:27:41.398Z,99807.73
2017-12-01T06:28:46.196Z,99811.08
2017-12-01T06:29:51.243Z,99806.31
2017-12-01T06:30:56.633Z,99803.67
2017-12-01T06:32:01.670Z,99803.23
2017-12-01T06:33:06.876Z,99807.52
2017-12-01T06:34:11.962Z,99813.10
2017-12-01T06:35:17.024Z,99807.43
2017-12-01T06:36:22.067Z,99812.94
2017-12-01T06:37:27.108Z,99810.77
2017-12-01T06:38:32.204Z,99815.01
2017-12-01T06:39:37.273Z,99817.55
2017-12-01T06:40:42.317Z,99818.81
2017-12-01T06:41:47.489Z,99815.73
2017-12-01T06:42:52.296Z,99823.40
2017-12-01T06:43:58.516Z,99825.52
2017-12-01T06:45:03.607Z,99830.18
2017-12-01T06:46:08.749Z,99825.87
2017-12-01T06:47:13.963Z,99824.11
2017-12-01T06:48:19.661Z,99823.19
2017-12-01T06:49:25.049Z,99827.88
2017-12-01T06:50:30.903Z,99831.73
2017-12-01T06:51:36.379Z,99834.26
2017-12-01T06:52:41.249Z,99835.45
2017-12-01T06:53:46.310Z,99840.49
2017-12-01T06:54:52.149Z,99842.11
2017-12-01T06:55:58.188Z,99843.78
2017-12-01T06:57:03.249Z,99843.27
2017-12-01T06:58:08.897Z,99839.76
2017-12-01T06:59:14.629Z,99842.30
2017-12-01T07:00:19.689Z,99844.38
2017-12-01T07:01:25.081Z,99849.96
2017-12-01T07:02:31.540Z,99850.78
2017-12-01T07:03:36.601Z,99851.64
2017-12-01T07:04:41.963Z,99848.63
2017-12-01T07:05:47.365Z,99855.86
2017-12-01T07:06:52.237Z,99853.67
2017-12-01T07:07:58.745Z,99857.05
2017-12-01T07:09:03.924Z,99858.30
2017-12-01T07:10:10.386Z,99862.11
2017-12-01T07:11:16.693Z,99866.38
2017-12-01T07:12:22.447Z,99862.53
2017-12-01T07:13:28.152Z,99861.23
2017-12-01T07:14:33.864Z,99864.69
2017-12-01T07:15:40.335Z,99868.13
2017-12-01T07:16:46.081Z,99868.98
2017-12-01T07:17:51.618Z,99868.13
2017-12-01T07:18:57.317Z,99865.97
2017-12-01T07:20:03.056Z,99870.70
2017-12-01T07:21:08.752Z,99875.02
2017-12-01T07:22:14.480Z,99874.16
2017-12-01T07:23:20.172Z,99874.58
2017-12-01T07:24:25.887Z,99876.72
2017-12-01T07:25:31.581Z,99879.71
2017-12-01T07:26:54.589Z,99877.94
2017-12-01T07:27:59.417Z,99881.38
2017-12-01T07:29:05.143Z,99884.36
2017-12-01T07:30:10.844Z,99885.58
2017-12-01T07:31:16.559Z,99884.68
2017-12-01T07:32:23.089Z,99888.10
2017-12-01T07:33:29.000Z,99882.94
2017-12-01T07:34:34.717Z,99890.63
2017-12-01T07:35:40.435Z,99894.03
2017-12-01T07:36:46.120Z,99891.81
2017-12-01T07:37:51.650Z,99897.39
2017-12-01T07:38:57.177Z,99894.35
2017-12-01T07:40:02.720Z,99895.63
2017-12-01T07:41:08.250Z,99896.07
2017-12-01T07:42:13.762Z,99894.72
2017-12-01T07:43:20.040Z,99889.54
2017-12-01T07:46:10.342Z,99890.73
2017-12-01T07:47:16.097Z,99896.31
2017-12-01T07:48:21.618Z,99898.88
2017-12-01T07:49:27.150Z,99894.98
2017-12-01T07:50:32.907Z,99895.36
2017-12-01T07:51:38.434Z,99896.19
2017-12-01T07:52:43.984Z,99899.98
2017-12-01T07:53:49.494Z,99899.08
2017-12-01T07:54:55.014Z,99899.00
2017-12-01T07:56:01.310Z,99903.70
2017-12-01T07:57:06.846Z,99902.33
2017-12-01T07:58:12.354Z,99907.02
2017-12-01T07:59:17.886Z,99910.45
2017-12-01T08:00:23.406Z,99911.25
2017-12-01T08:01:29.729Z,99911.22
2017-12-01T08:02:35.244Z,99918.09
2017-12-01T08:03:40.760Z,99915.92
2017-12-01T08:04:46.290Z,99919.73
2017-12-01T08:05:51.833Z,99917.95
2017-12-01T08:06:57.389Z,99918.32
2017-12-01T08:08:03.002Z,99915.20
2017-12-01T08:09:08.516Z,99921.17
2017-12-01T08:10:14.817Z,99922.36
2017-12-01T08:11:20.361Z,99924.84
2017-12-01T08:12:25.899Z,99919.56
2017-12-01T08:13:31.408Z,99921.17
2017-12-01T08:14:36.928Z,99923.26
2017-12-01T08:15:59.122Z,99920.19
2017-12-01T08:17:21.288Z,99920.54
2017-12-01T08:18:43.517Z,99919.99
2017-12-01T08:19:48.396Z,99928.06
2017-12-01T08:21:08.125Z,99927.95
2017-12-01T08:22:30.301Z,99931.75
2017-12-01T08:23:53.263Z,99935.13
2017-12-01T08:25:16.219Z,99934.21
2017-12-01T08:26:21.730Z,99937.28
2017-12-01T08:27:28.016Z,99935.98
2017-12-01T08:28:33.530Z,99938.94
2017-12-01T08:29:39.836Z,99944.52
2017-12-01T08:30:45.371Z,99942.36
2017-12-01T08:31:50.889Z,99943.69
2017-12-01T08:32:56.455Z,99945.06
2017-12-01T08:34:02.328Z,99945.53
2017-12-01T08:35:08.847Z,99951.14
2017-12-01T08:36:14.559Z,99949.44
2017-12-01T08:37:20.252Z,99957.63
2017-12-01T08:38:25.955Z,99949.80
2017-12-01T08:39:31.670Z,99958.32
2017-12-01T08:40:37.123Z,99964.70
2017-12-01T08:41:43.438Z,99961.56
2017-12-01T08:42:49.909Z,99959.70
2017-12-01T08:43:55.618Z,99965.59
2017-12-01T08:45:01.322Z,99966.33
2017-12-01T08:46:06.537Z,99966.58
2017-12-01T08:47:11.907Z,99968.81
2017-12-01T08:48:17.287Z,99967.19
2017-12-01T08:49:23.753Z,99971.64
2017-12-01T08:50:29.464Z,99973.11
2017-12-01T08:51:36.868Z,99974.58
2017-12-01T08:52:43.442Z,99968.70
2017-12-01T08:53:49.144Z,99971.91
2017-12-01T08:54:54.519Z,99974.57
2017-12-01T08:56:00.233Z,99980.83
2017-12-01T08:57:06.889Z,99981.45
2017-12-01T08:58:13.672Z,99978.25
2017-12-01T08:59:19.390Z,99980.29
2017-12-01T09:00:25.206Z,99981.53
2017-12-01T09:01:30.921Z,99979.34
2017-12-01T09:02:36.667Z,99987.91
2017-12-01T09:03:42.370Z,99985.73
2017-12-01T09:04:47.553Z,99984.11
2017-12-01T09:05:53.249Z,99987.06
2017-12-01T09:06:58.956Z,99994.83
2017-12-01T09:08:04.767Z,99996.13
2017-12-01T09:09:10.661Z,99997.09
2017-12-01T09:10:17.136Z,99999.78
2017-12-01T09:11:22.836Z,100008.10
2017-12-01T09:12:28.579Z,100008.12
2017-12-01T09:13:34.310Z,100002.95
2017-12-01T09:14:39.906Z,100011.55
2017-12-01T09:15:45.628Z,100010.23
2017-12-01T09:16:51.342Z,100011.46
2017-12-01T09:17:56.884Z,100014.86
2017-12-01T09:19:03.389Z,100019.05
2017-12-01T09:20:08.925Z,100019.02
2017-12-01T09:21:14.629Z,100014.59
2017-12-01T09:22:20.919Z,100018.13
2017-12-01T09:23:26.622Z,100025.00
2017-12-01T09:24:32.860Z,100021.97
2017-12-01T09:25:38.576Z,100022.52
2017-12-01T09:26:44.276Z,100027.84
2017-12-01T09:27:49.990Z,100024.13
2017-12-01T09:28:55.537Z,100026.39
2017-12-01T09:30:02.249Z,100030.42
2017-12-01T09:31:07.621Z,100030.66
2017-12-01T09:32:14.107Z,100034.50
2017-12-01T09:33:19.610Z,100035.80
2017-12-01T09:34:25.321Z,100040.39
2017-12-01T09:35:31.056Z,100043.00
2017-12-01T09:36:36.765Z,100038.47
2017-12-01T09:37:42.480Z,100035.30
2017-12-01T09:38:48.763Z,100035.71
2017-12-01T09:39:54.478Z,100029.44
2017-12-01T09:41:00.645Z,100038.14
2017-12-01T09:42:06.105Z,100037.19
2017-12-01T09:43:11.165Z,100040.39
2017-12-01T09:44:16.225Z,100040.05
2017-12-01T09:45:21.274Z,100042.92
2017-12-01T09:46:27.013Z,100048.27
2017-12-01T09:47:32.740Z,100051.62
2017-12-01T09:48:38.449Z,100050.93
2017-12-01T09:49:44.938Z,100049.98
2017-12-01T09:50:50.682Z,100044.31
2017-12-01T09:51:56.424Z,100049.25
2017-12-01T09:53:02.140Z,100051.09
2017-12-01T09:54:08.629Z,100057.31
2017-12-01T09:55:14.374Z,100052.12
2017-12-01T09:56:19.571Z,100057.87
2017-12-01T09:57:26.078Z,100053.31
2017-12-01T09:58:31.800Z,100054.81
2017-12-01T09:59:37.501Z,100056.54
2017-12-01T10:00:44.194Z,100059.61
2017-12-01T10:01:49.958Z,100061.81
2017-12-01T10:02:56.290Z,100061.33
2017-12-01T10:04:02.011Z,100058.54
2017-12-01T10:05:08.487Z,100059.57
2017-12-01T10:06:14.205Z,100060.13
2017-12-01T10:07:20.690Z,100061.61
2017-12-01T10:08:27.180Z,100057.66
2017-12-01T10:09:32.924Z,100062.46
2017-12-01T10:10:38.647Z,100068.59
2017-12-01T10:11:44.342Z,100070.46
2017-12-01T10:12:50.890Z,100067.53
2017-12-01T10:13:56.645Z,100066.59
2017-12-01T10:15:03.125Z,100069.14
2017-12-01T10:16:08.837Z,100072.45
2017-12-01T10:17:15.355Z,100067.54
2017-12-01T10:18:21.108Z,100070.42
2017-12-01T10:19:26.850Z,100072.54
2017-12-01T10:20:32.571Z,100069.63
2017-12-01T10:21:38.283Z,100074.19
2017-12-01T10:22:44.029Z,100075.20
2017-12-01T10:23:49.744Z,100073.37
2017-12-01T10:24:56.272Z,100074.50
2017-12-01T10:26:01.980Z,100076.10
2017-12-01T10:27:07.689Z,100075.04
2017-12-01T10:28:13.214Z,100081.80
2017-12-01T10:29:18.932Z,100086.41
2017-12-01T10:30:24.412Z,100082.36
2017-12-01T10:31:30.888Z,100089.62
2017-12-01T10:32:36.262Z,100089.25
2017-12-01T10:33:41.972Z,100090.09
2017-12-01T10:34:47.695Z,100088.39
2017-12-01T10:35:53.445Z,100089.62
2017-12-01T10:36:59.187Z,100090.75
2017-12-01T10:38:04.633Z,100093.66
2017-12-01T10:39:10.331Z,100090.91
2017-12-01T10:40:16.153Z,100096.62
2017-12-01T10:41:21.929Z,100093.08
2017-12-01T10:42:27.658Z,100101.05
2017-12-01T10:43:33.612Z,100101.69
2017-12-01T10:44:40.122Z,100103.60
2017-12-01T10:45:45.497Z,100106.53
2017-12-01T10:46:52.001Z,100104.81
2017-12-01T10:47:57.730Z,100102.45
2017-12-01T10:49:03.441Z,100099.67
2017-12-01T10:50:09.934Z,100098.75
2017-12-01T10:51:14.786Z,100097.39
2017-12-01T10:52:20.529Z,100090.80
2017-12-01T10:53:26.248Z,100098.99
2017-12-01T10:54:31.989Z,100098.99
2017-12-01T10:55:37.693Z,100096.44
2017-12-01T10:56:43.621Z,100096.09
2017-12-01T10:57:50.121Z,100102.28
2017-12-01T10:58:55.858Z,100107.69
2017-12-01T11:00:01.588Z,100107.81
2017-12-01T11:01:07.305Z,100104.54
2017-12-01T11:02:13.803Z,100110.41
2017-12-01T11:03:19.546Z,100110.19
2017-12-01T11:04:25.090Z,100112.13
2017-12-01T11:05:30.806Z,100115.36
2017-12-01T11:06:36.525Z,100115.15
2017-12-01T11:07:42.801Z,100114.84
2017-12-01T11:08:48.536Z,100122.94
2017-12-01T11:09:54.282Z,100120.05
2017-12-01T11:10:59.988Z,100119.95
2017-12-01T11:12:06.547Z,100121.45
2017-12-01T11:13:12.302Z,100122.30
2017-12-01T11:14:18.197Z,100124.08
2017-12-01T11:15:23.909Z,100122.53
2017-12-01T11:16:29.625Z,100119.58
2017-12-01T11:17:36.108Z,100121.05
2017-12-01T11:18:41.830Z,100124.59
2017-12-01T11:19:47.584Z,100117.33
2017-12-01T11:20:53.292Z,100117.55
2017-12-01T11:21:59.785Z,100118.92
2017-12-01T11:23:05.495Z,100118.59
2017-12-01T11:24:11.049Z,100117.38
2017-12-01T11:25:17.557Z,100117.55
2017-12-01T11:26:23.274Z,100111.12
2017-12-01T11:27:29.005Z,100108.88
2017-12-01T11:28:34.754Z,100106.20
2017-12-01T11:29:40.796Z,100112.60
2017-12-01T11:30:46.535Z,100109.88
2017-12-01T11:31:52.286Z,100116.66
2017-12-01T11:32:58.946Z,100111.63
2017-12-01T11:34:04.661Z,100109.34
2017-12-01T11:35:11.138Z,100109.38
2017-12-01T11:36:16.896Z,100113.75
2017-12-01T11:37:22.597Z,100110.26
2017-12-01T11:38:28.315Z,100106.48
2017-12-01T11:39:34.028Z,100105.52
2017-12-01T11:40:39.740Z,100109.89
2017-12-01T11:41:45.481Z,100104.63
2017-12-01T11:42:51.201Z,100107.91
2017-12-01T11:43:57.680Z,100110.48
2017-12-01T11:45:03.415Z,100107.45
2017-12-01T11:46:08.592Z,100107.85
2017-12-01T11:47:14.334Z,100114.64
2017-12-01T11:48:20.061Z,100118.09
2017-12-01T11:49:25.772Z,100116.84
2017-12-01T11:50:31.857Z,100114.83
2017-12-01T11:51:37.257Z,100118.02
2017-12-01T11:52:43.049Z,100115.31
2017-12-01T11:53:48.810Z,100118.26
2017-12-01T11:54:54.720Z,100116.48
2017-12-01T11:56:00.097Z,100123.55
2017-12-01T11:57:05.816Z,100123.08
2017-12-01T11:58:10.899Z,100122.70
2017-12-01T11:59:16.604Z,100124.34
2017-12-01T12:00:21.441Z,100125.47
2017-12-01T12:01:26.493Z,100128.93
2017-12-01T12:02:31.632Z,100123.24
2017-12-01T12:03:37.369Z,100125.49
2017-12-01T12:04:42.428Z,100127.45
2017-12-01T12:05:48.132Z,100130.52
2017-12-01T12:06:53.521Z,100135.97
2017-12-01T12:07:58.904Z,100133.16
2017-12-01T12:09:03.578Z,100133.70
2017-12-01T12:10:08.641Z,100134.58
2017-12-01T12:11:14.018Z,100133.72
2017-12-01T12:12:19.917Z,100137.68
2017-12-01T12:13:25.302Z,100134.73
2017-12-01T12:14:30.173Z,100134.77
2017-12-01T12:15:35.562Z,100136.90
2017-12-01T12:16:40.758Z,100135.69
2017-12-01T12:17:46.912Z,100134.02
2017-12-01T12:18:52.325Z,100140.11
2017-12-01T12:19:57.608Z,100144.03
2017-12-01T12:21:03.199Z,100146.24
2017-12-01T12:22:08.940Z,100143.20
2017-12-01T12:23:14.321Z,100147.91
2017-12-01T12:24:19.713Z,100149.09
2017-12-01T12:25:24.793Z,100149.20
2017-12-01T12:26:30.194Z,100149.41
2017-12-01T12:27:36.026Z,100153.79
2017-12-01T12:28:42.215Z,100153.89
2017-12-01T12:29:47.264Z,100160.88
2017-12-01T12:30:53.000Z,100163.16
2017-12-01T12:31:58.407Z,100163.90
2017-12-01T12:33:03.900Z,100158.77
2017-12-01T12:34:09.145Z,100155.06
2017-12-01T12:35:14.964Z,100155.74
2017-12-01T12:36:20.040Z,100159.12
2017-12-01T12:37:25.221Z,100164.14
2017-12-01T12:38:30.280Z,100157.11
2017-12-01T12:39:35.327Z,100158.09
2017-12-01T12:40:40.724Z,100156.42
2017-12-01T12:41:46.924Z,100157.84
2017-12-01T12:42:51.990Z,100162.09
2017-12-01T12:43:56.871Z,100163.81
2017-12-01T12:45:01.920Z,100163.76
2017-12-01T12:46:07.014Z,100169.42
2017-12-01T12:47:11.928Z,100168.72